createdAt,value
2019-05-11T00:05:45.291Z,1.34
2019-05-11T00:15:45.259Z,1.37
2019-05-11T00:25:45.249Z,1.07
2019-05-11T00:35:45.366Z,0.97
2019-05-11T00:45:45.411Z,1.56
2019-05-11T00:55:45.374Z,1.73
2019-05-11T01:05:45.401Z,1.27
2019-05-11T01:15:45.286Z,0.96
2019-05-11T01:25:45.247Z,0.20
2019-05-11T01:35:45.215Z,0.46
2019-05-11T01:45:45.283Z,0.28
2019-05-11T01:55:45.255Z,0.12
2019-05-11T02:05:45.340Z,0.12
2019-05-11T02:15:45.273Z,0.12
2019-05-11T02:25:45.348Z,0.17
2019-05-11T02:35:45.198Z,0.18
2019-05-11T02:45:45.276Z,0.23
2019-05-11T02:55:45.251Z,0.31
2019-05-11T03:05:46.160Z,0.29
2019-05-11T03:15:45.225Z,0.16
2019-05-11T03:25:45.313Z,0.06
2019-05-11T03:35:45.277Z,0.05
2019-05-11T03:45:45.247Z,0.21
2019-05-11T03:55:45.226Z,0.19
2019-05-11T04:05:45.272Z,0.02
2019-05-11T04:15:45.229Z,0.06
2019-05-11T04:25:45.194Z,0.16
2019-05-11T04:35:45.262Z,0.42
2019-05-11T04:45:45.257Z,0.28
2019-05-11T04:55:45.225Z,0.44
2019-05-11T05:05:45.280Z,0.32
2019-05-11T05:15:45.243Z,0.37
2019-05-11T05:25:45.223Z,0.50
2019-05-11T05:35:45.292Z,0.54
2019-05-11T05:45:45.326Z,0.25
2019-05-11T05:55:45.207Z,0.21
2019-05-11T06:05:45.291Z,0.21
2019-05-11T06:15:45.235Z,0.16
2019-05-11T06:25:46.041Z,0.35
2019-05-11T06:35:45.445Z,0.30
2019-05-11T06:45:45.220Z,0.38
2019-05-11T06:55:45.244Z,0.14
2019-05-11T07:05:45.268Z,0.41
2019-05-11T07:15:45.369Z,0.29
2019-05-11T07:25:45.194Z,0.60
2019-05-11T07:35:47.706Z,0.32
2019-05-11T07:45:48.017Z,0.44
2019-05-11T07:55:45.196Z,0.33
2019-05-11T08:05:47.697Z,0.37
2019-05-11T08:15:45.215Z,0.60
2019-05-11T08:25:45.283Z,0.50
2019-05-11T08:35:45.241Z,0.26
2019-05-11T08:45:45.222Z,0.32
2019-05-11T08:55:45.297Z,0.41
2019-05-11T09:05:45.348Z,0.26
2019-05-11T09:15:45.327Z,0.36
2019-05-11T09:25:47.579Z,0.55
2019-05-11T09:35:49.842Z,0.27
2019-05-11T09:45:48.655Z,0.45
2019-05-11T09:55:45.298Z,0.47
2019-05-11T10:05:45.247Z,0.47
2019-05-11T10:16:00.031Z,0.58
2019-05-11T10:25:45.275Z,0.93
2019-05-11T10:35:45.246Z,0.94
2019-05-11T10:45:45.199Z,0.66
2019-05-11T10:55:47.801Z,0.56
2019-05-11T11:05:45.956Z,0.79
2019-05-11T11:15:48.325Z,0.69
2019-05-11T11:25:45.298Z,0.87
2019-05-11T11:35:47.575Z,1.01
2019-05-11T11:45:45.214Z,0.96
2019-05-11T11:55:45.327Z,0.43
2019-05-11T12:05:47.547Z,0.71
2019-05-11T12:15:45.248Z,0.44
2019-05-11T12:25:45.302Z,0.73
2019-05-11T12:35:45.268Z,0.93
2019-05-11T12:45:45.220Z,1.04
2019-05-11T12:55:45.274Z,1.23
2019-05-11T13:05:45.369Z,1.23
2019-05-11T13:15:45.271Z,1.11
2019-05-11T13:25:45.318Z,0.85
2019-05-11T13:35:45.407Z,1.02
2019-05-11T13:45:45.303Z,1.67
2019-05-11T13:55:45.257Z,1.11
2019-05-11T14:05:45.345Z,1.08
2019-05-11T14:15:45.322Z,1.46
2019-05-11T14:25:45.410Z,1.47
2019-05-11T14:35:45.230Z,1.35
2019-05-11T14:45:45.343Z,1.15
2019-05-11T14:55:45.284Z,1.28
2019-05-11T15:05:45.248Z,1.14
2019-05-11T15:15:45.303Z,1.07
2019-05-11T15:25:45.284Z,1.44
2019-05-11T15:35:45.267Z,1.09
2019-05-11T15:45:45.317Z,1.31
2019-05-11T15:55:45.289Z,1.00
2019-05-11T16:05:45.282Z,1.15
2019-05-11T16:15:47.531Z,1.17
2019-05-11T16:25:45.291Z,1.21
2019-05-11T16:35:45.378Z,1.24
2019-05-11T16:45:45.494Z,0.60
2019-05-11T16:55:48.394Z,0.72
2019-05-11T17:05:45.484Z,0.59
2019-05-11T17:15:45.422Z,0.55
2019-05-11T17:25:45.400Z,0.70
2019-05-11T17:35:45.298Z,0.82
2019-05-11T17:45:47.746Z,0.50
2019-05-11T17:55:45.262Z,0.63
2019-05-11T18:05:48.374Z,0.53
2019-05-11T18:15:45.333Z,0.42
2019-05-11T18:25:45.346Z,0.73
2019-05-11T18:35:45.302Z,0.47
2019-05-11T18:45:45.269Z,0.69
2019-05-11T18:55:45.336Z,0.67
2019-05-11T19:05:47.859Z,0.52
2019-05-11T19:15:45.284Z,0.81
2019-05-11T19:25:45.342Z,0.62
2019-05-11T19:35:45.416Z,0.51
2019-05-11T19:45:45.288Z,0.70
2019-05-11T19:55:47.787Z,0.59
2019-05-11T20:05:45.301Z,0.47
2019-05-11T20:15:45.270Z,0.25
2019-05-11T20:25:47.650Z,0.59
2019-05-11T20:35:45.361Z,0.52
2019-05-11T20:45:45.542Z,0.27
2019-05-11T20:55:47.630Z,0.46
2019-05-11T21:05:45.463Z,0.46
2019-05-11T21:15:47.661Z,0.17
2019-05-11T21:25:45.992Z,0.20
2019-05-11T21:35:45.380Z,0.19
2019-05-11T21:45:45.446Z,0.27
2019-05-11T21:55:48.108Z,0.03
2019-05-11T22:05:45.370Z,0.05
2019-05-11T22:15:45.434Z,0.01
2019-05-11T22:25:47.580Z,0.01
2019-05-11T22:35:45.691Z,0.01
2019-05-11T22:45:45.318Z,0.01
2019-05-11T22:55:45.296Z,0.02
2019-05-11T23:05:47.603Z,0.08
2019-05-11T23:15:47.641Z,0.04
2019-05-11T23:25:45.317Z,0.01
2019-05-11T23:35:45.303Z,0.01
2019-05-11T23:45:45.259Z,0.01
2019-05-11T23:55:45.425Z,0.01
